This is the latest recevied weather packets stored in our database for station/object K1ABC. If no packets are shown the sender has not sent any weather packets the latest 10 day(s).
| Time | Temp. | Humidity | Pressure | Rain* | Wind** | Luminosity | Snow |
|---|---|---|---|---|---|---|---|
| 1777690778 | 8.89° C | 48% | 1011.2 hPa | 0 mm | - | - | - |
| 1777689914 | 8.89° C | 48% | 1011.2 hPa | 0 mm | - | - | - |
| 1777689671 | 8.89° C | 48% | 1011.2 hPa | 0 mm | - | - | - |
| 1777689551 | 8.89° C | 48% | 1011.2 hPa | 0 mm | - | - | - |
| 1777688464 | 9.44° C | 47% | 1011.1 hPa | 0 mm | - | - | - |
| 1777687760 | 9.44° C | 46% | 1011.1 hPa | 0 mm | - | - | - |
| 1777687506 | 9.44° C | 45% | 1011.1 hPa | 0 mm | - | - | - |
| 1777687255 | 9.44° C | 46% | 1011.1 hPa | 0 mm | - | - | - |
| 1777686874 | 10° C | 47% | 1011.1 hPa | 0 mm | - | - | - |
| 1777686509 | 10° C | 46% | 1011.1 hPa | 0 mm | - | - | - |
| 1777684506 | 10.56° C | 44% | 1011 hPa | 0 mm | - | - | - |
| 1777682911 | 11.67° C | 39% | 1010.7 hPa | 0 mm | - | - | - |
| 1777682335 | 12.22° C | 39% | 1010.6 hPa | 0 mm | - | - | - |
| 1777681839 | 12.22° C | 38% | 1010.5 hPa | 0 mm | - | - | - |
| 1777681472 | 12.78° C | 37% | 1010.4 hPa | 0 mm | - | - | - |
| 1777680906 | 12.78° C | 36% | 1010.2 hPa | 0 mm | - | - | - |
| 1777678941 | 14.44° C | 33% | 1009.7 hPa | 0 mm | - | - | - |
| 1777678681 | 14.44° C | 34% | 1009.6 hPa | 0 mm | - | - | - |
| 1777677982 | 14.44° C | 32% | 1009.5 hPa | 0 mm | - | - | - |
| 1777677088 | 15° C | 32% | 1009.3 hPa | 0 mm | - | - | - |
| 1777676633 | 15° C | 32% | 1009.2 hPa | 0 mm | - | - | - |
| 1777673448 | 16.67° C | 29% | 1008.8 hPa | 0 mm | - | - | - |
| 1777672996 | 17.22° C | 27% | 1008.7 hPa | 0 mm | - | - | - |
| 1777672740 | 17.22° C | 29% | 1008.7 hPa | 0 mm | - | - | - |
| 1777672116 | 17.22° C | 29% | 1008.6 hPa | 0 mm | - | - | - |
* Rain latest hour (hover to see other rain measurements)
** Current wind speed in m/s (hover to see current wind gust speed)